sensor_id;sensor_type;location;lat;lon;timestamp;P1;durP1;ratioP1;P2;durP2;ratioP2
76593;SDS011;65482;50.240;14.302;2024-01-07T00:01:01;22.70;;;11.32;;
76593;SDS011;65482;50.240;14.302;2024-01-07T00:03:47;22.23;;;9.73;;
76593;SDS011;65482;50.240;14.302;2024-01-07T00:06:12;21.30;;;10.10;;
76593;SDS011;65482;50.240;14.302;2024-01-07T00:08:38;22.60;;;10.85;;
76593;SDS011;65482;50.240;14.302;2024-01-07T00:11:03;23.02;;;10.65;;
76593;SDS011;65482;50.240;14.302;2024-01-07T00:13:29;23.58;;;11.02;;
76593;SDS011;65482;50.240;14.302;2024-01-07T00:15:55;23.95;;;10.88;;
76593;SDS011;65482;50.240;14.302;2024-01-07T00:18:21;23.98;;;11.13;;
76593;SDS011;65482;50.240;14.302;2024-01-07T00:20:47;23.52;;;10.73;;
76593;SDS011;65482;50.240;14.302;2024-01-07T00:23:13;22.10;;;10.02;;
76593;SDS011;65482;50.240;14.302;2024-01-07T00:25:38;23.48;;;10.60;;
76593;SDS011;65482;50.240;14.302;2024-01-07T00:28:04;23.15;;;11.02;;
76593;SDS011;65482;50.240;14.302;2024-01-07T00:30:29;22.25;;;10.20;;
76593;SDS011;65482;50.240;14.302;2024-01-07T00:32:55;19.58;;;9.18;;
76593;SDS011;65482;50.240;14.302;2024-01-07T00:35:20;21.20;;;10.77;;
76593;SDS011;65482;50.240;14.302;2024-01-07T00:37:46;21.00;;;10.73;;
76593;SDS011;65482;50.240;14.302;2024-01-07T00:40:12;21.27;;;10.80;;
76593;SDS011;65482;50.240;14.302;2024-01-07T00:42:37;22.98;;;10.32;;
76593;SDS011;65482;50.240;14.302;2024-01-07T00:45:03;25.77;;;10.80;;
76593;SDS011;65482;50.240;14.302;2024-01-07T00:47:29;21.05;;;10.60;;
76593;SDS011;65482;50.240;14.302;2024-01-07T00:49:54;23.52;;;10.23;;
76593;SDS011;65482;50.240;14.302;2024-01-07T00:52:20;24.42;;;10.88;;
76593;SDS011;65482;50.240;14.302;2024-01-07T00:54:46;23.50;;;10.73;;
76593;SDS011;65482;50.240;14.302;2024-01-07T00:57:12;25.23;;;11.07;;
76593;SDS011;65482;50.240;14.302;2024-01-07T00:59:38;23.67;;;10.60;;
76593;SDS011;65482;50.240;14.302;2024-01-07T01:02:03;23.60;;;9.63;;
76593;SDS011;65482;50.240;14.302;2024-01-07T01:04:29;26.65;;;10.57;;
76593;SDS011;65482;50.240;14.302;2024-01-07T01:06:54;21.38;;;9.73;;
76593;SDS011;65482;50.240;14.302;2024-01-07T01:09:20;22.63;;;10.60;;
76593;SDS011;65482;50.240;14.302;2024-01-07T01:11:46;19.02;;;9.45;;
76593;SDS011;65482;50.240;14.302;2024-01-07T01:14:11;19.73;;;9.95;;
76593;SDS011;65482;50.240;14.302;2024-01-07T01:16:37;20.48;;;8.98;;
76593;SDS011;65482;50.240;14.302;2024-01-07T01:19:02;15.68;;;7.82;;
76593;SDS011;65482;50.240;14.302;2024-01-07T01:21:28;17.95;;;8.70;;
76593;SDS011;65482;50.240;14.302;2024-01-07T01:23:54;15.00;;;8.05;;
76593;SDS011;65482;50.240;14.302;2024-01-07T01:26:19;17.45;;;9.25;;
76593;SDS011;65482;50.240;14.302;2024-01-07T01:28:45;16.38;;;8.73;;
76593;SDS011;65482;50.240;14.302;2024-01-07T01:31:14;17.40;;;7.85;;
76593;SDS011;65482;50.240;14.302;2024-01-07T01:33:39;17.77;;;8.23;;
76593;SDS011;65482;50.240;14.302;2024-01-07T01:36:05;15.93;;;7.68;;
76593;SDS011;65482;50.240;14.302;2024-01-07T01:38:31;14.63;;;8.07;;
76593;SDS011;65482;50.240;14.302;2024-01-07T01:40:57;17.75;;;8.25;;
76593;SDS011;65482;50.240;14.302;2024-01-07T01:43:26;16.77;;;8.43;;
76593;SDS011;65482;50.240;14.302;2024-01-07T01:45:53;16.52;;;8.50;;
76593;SDS011;65482;50.240;14.302;2024-01-07T01:48:19;16.45;;;8.23;;
76593;SDS011;65482;50.240;14.302;2024-01-07T01:50:45;18.50;;;8.77;;
76593;SDS011;65482;50.240;14.302;2024-01-07T01:53:12;15.30;;;8.38;;
76593;SDS011;65482;50.240;14.302;2024-01-07T01:55:38;20.33;;;8.95;;
76593;SDS011;65482;50.240;14.302;2024-01-07T01:58:04;20.77;;;8.85;;
76593;SDS011;65482;50.240;14.302;2024-01-07T02:00:30;15.32;;;7.75;;
76593;SDS011;65482;50.240;14.302;2024-01-07T02:02:55;20.83;;;9.07;;
76593;SDS011;65482;50.240;14.302;2024-01-07T02:05:21;17.42;;;9.30;;
76593;SDS011;65482;50.240;14.302;2024-01-07T02:07:47;19.10;;;8.77;;
76593;SDS011;65482;50.240;14.302;2024-01-07T02:10:13;15.38;;;8.27;;
76593;SDS011;65482;50.240;14.302;2024-01-07T02:12:39;16.63;;;8.40;;
76593;SDS011;65482;50.240;14.302;2024-01-07T02:15:04;19.95;;;8.77;;
76593;SDS011;65482;50.240;14.302;2024-01-07T02:17:30;18.58;;;8.45;;
76593;SDS011;65482;50.240;14.302;2024-01-07T02:19:56;16.13;;;8.82;;
76593;SDS011;65482;50.240;14.302;2024-01-07T02:22:22;17.92;;;9.05;;
76593;SDS011;65482;50.240;14.302;2024-01-07T02:24:48;17.63;;;8.68;;
76593;SDS011;65482;50.240;14.302;2024-01-07T02:27:13;20.10;;;8.98;;
76593;SDS011;65482;50.240;14.302;2024-01-07T02:29:39;20.08;;;8.75;;
76593;SDS011;65482;50.240;14.302;2024-01-07T02:32:04;17.55;;;8.13;;
76593;SDS011;65482;50.240;14.302;2024-01-07T02:34:30;17.10;;;8.25;;
76593;SDS011;65482;50.240;14.302;2024-01-07T02:36:56;16.15;;;8.75;;
76593;SDS011;65482;50.240;14.302;2024-01-07T02:39:21;17.40;;;8.52;;
76593;SDS011;65482;50.240;14.302;2024-01-07T02:41:47;21.17;;;9.15;;
76593;SDS011;65482;50.240;14.302;2024-01-07T02:44:13;18.30;;;9.00;;
76593;SDS011;65482;50.240;14.302;2024-01-07T02:46:39;17.58;;;8.45;;
76593;SDS011;65482;50.240;14.302;2024-01-07T02:49:04;19.95;;;8.85;;
76593;SDS011;65482;50.240;14.302;2024-01-07T02:51:30;19.38;;;9.30;;
76593;SDS011;65482;50.240;14.302;2024-01-07T02:53:55;18.13;;;8.93;;
76593;SDS011;65482;50.240;14.302;2024-01-07T02:56:21;16.50;;;8.77;;
76593;SDS011;65482;50.240;14.302;2024-01-07T02:58:46;18.30;;;9.07;;
76593;SDS011;65482;50.240;14.302;2024-01-07T03:01:12;18.77;;;8.75;;
76593;SDS011;65482;50.240;14.302;2024-01-07T03:03:38;19.65;;;9.60;;
76593;SDS011;65482;50.240;14.302;2024-01-07T03:06:04;20.52;;;8.60;;
76593;SDS011;65482;50.240;14.302;2024-01-07T03:08:30;17.30;;;8.70;;
76593;SDS011;65482;50.240;14.302;2024-01-07T03:10:56;17.45;;;8.55;;
76593;SDS011;65482;50.240;14.302;2024-01-07T03:13:22;18.05;;;8.50;;
76593;SDS011;65482;50.240;14.302;2024-01-07T03:15:47;16.40;;;8.57;;
76593;SDS011;65482;50.240;14.302;2024-01-07T03:18:13;21.58;;;9.32;;
76593;SDS011;65482;50.240;14.302;2024-01-07T03:20:38;18.15;;;8.63;;
76593;SDS011;65482;50.240;14.302;2024-01-07T03:23:04;16.23;;;8.57;;
76593;SDS011;65482;50.240;14.302;2024-01-07T03:25:30;22.50;;;9.85;;
76593;SDS011;65482;50.240;14.302;2024-01-07T03:27:55;22.88;;;9.93;;
76593;SDS011;65482;50.240;14.302;2024-01-07T03:30:21;17.48;;;9.10;;
76593;SDS011;65482;50.240;14.302;2024-01-07T03:32:46;21.27;;;9.30;;
76593;SDS011;65482;50.240;14.302;2024-01-07T03:35:12;17.92;;;9.10;;
76593;SDS011;65482;50.240;14.302;2024-01-07T03:37:37;19.45;;;9.55;;
76593;SDS011;65482;50.240;14.302;2024-01-07T03:40:03;19.48;;;9.02;;
76593;SDS011;65482;50.240;14.302;2024-01-07T03:42:29;16.70;;;8.93;;
76593;SDS011;65482;50.240;14.302;2024-01-07T03:44:54;21.25;;;9.90;;
76593;SDS011;65482;50.240;14.302;2024-01-07T03:47:20;21.23;;;9.45;;
76593;SDS011;65482;50.240;14.302;2024-01-07T03:49:45;19.15;;;9.15;;
76593;SDS011;65482;50.240;14.302;2024-01-07T03:52:11;19.17;;;9.10;;
76593;SDS011;65482;50.240;14.302;2024-01-07T03:54:36;19.17;;;9.13;;
76593;SDS011;65482;50.240;14.302;2024-01-07T03:57:02;20.05;;;9.30;;
76593;SDS011;65482;50.240;14.302;2024-01-07T03:59:27;19.42;;;9.50;;
76593;SDS011;65482;50.240;14.302;2024-01-07T04:01:54;20.35;;;9.27;;
76593;SDS011;65482;50.240;14.302;2024-01-07T04:04:20;18.10;;;8.80;;
76593;SDS011;65482;50.240;14.302;2024-01-07T04:06:46;21.73;;;9.80;;
76593;SDS011;65482;50.240;14.302;2024-01-07T04:09:11;18.80;;;9.48;;
76593;SDS011;65482;50.240;14.302;2024-01-07T04:11:40;21.25;;;9.60;;
76593;SDS011;65482;50.240;14.302;2024-01-07T04:14:07;18.45;;;9.20;;
76593;SDS011;65482;50.240;14.302;2024-01-07T04:16:33;19.63;;;9.90;;
76593;SDS011;65482;50.240;14.302;2024-01-07T04:18:58;16.25;;;8.38;;
76593;SDS011;65482;50.240;14.302;2024-01-07T04:21:24;17.27;;;9.23;;
76593;SDS011;65482;50.240;14.302;2024-01-07T04:23:49;17.98;;;8.57;;
76593;SDS011;65482;50.240;14.302;2024-01-07T04:26:15;19.35;;;9.27;;
76593;SDS011;65482;50.240;14.302;2024-01-07T04:28:41;14.93;;;8.40;;
76593;SDS011;65482;50.240;14.302;2024-01-07T04:31:07;16.08;;;7.45;;
76593;SDS011;65482;50.240;14.302;2024-01-07T04:33:33;16.00;;;8.35;;
76593;SDS011;65482;50.240;14.302;2024-01-07T04:35:59;16.85;;;8.82;;
76593;SDS011;65482;50.240;14.302;2024-01-07T04:38:26;18.55;;;8.82;;
76593;SDS011;65482;50.240;14.302;2024-01-07T04:40:52;19.70;;;8.90;;
76593;SDS011;65482;50.240;14.302;2024-01-07T04:43:18;13.63;;;7.90;;
76593;SDS011;65482;50.240;14.302;2024-01-07T04:45:44;15.40;;;8.68;;
76593;SDS011;65482;50.240;14.302;2024-01-07T04:48:10;15.60;;;8.57;;
76593;SDS011;65482;50.240;14.302;2024-01-07T04:50:36;16.45;;;8.70;;
76593;SDS011;65482;50.240;14.302;2024-01-07T04:53:01;18.30;;;8.23;;
76593;SDS011;65482;50.240;14.302;2024-01-07T04:55:29;17.02;;;8.07;;
76593;SDS011;65482;50.240;14.302;2024-01-07T04:57:55;19.08;;;8.80;;
76593;SDS011;65482;50.240;14.302;2024-01-07T05:00:20;15.95;;;8.35;;
76593;SDS011;65482;50.240;14.302;2024-01-07T05:02:46;15.02;;;8.38;;
76593;SDS011;65482;50.240;14.302;2024-01-07T05:05:12;17.83;;;8.73;;
76593;SDS011;65482;50.240;14.302;2024-01-07T05:07:37;16.77;;;8.20;;
76593;SDS011;65482;50.240;14.302;2024-01-07T05:10:03;17.10;;;8.27;;
76593;SDS011;65482;50.240;14.302;2024-01-07T05:12:30;18.63;;;9.40;;
76593;SDS011;65482;50.240;14.302;2024-01-07T05:14:55;17.38;;;8.65;;
76593;SDS011;65482;50.240;14.302;2024-01-07T05:17:21;15.68;;;7.95;;
76593;SDS011;65482;50.240;14.302;2024-01-07T05:19:46;18.65;;;9.38;;
76593;SDS011;65482;50.240;14.302;2024-01-07T05:22:12;19.17;;;9.80;;
76593;SDS011;65482;50.240;14.302;2024-01-07T05:24:38;17.73;;;8.52;;
76593;SDS011;65482;50.240;14.302;2024-01-07T05:27:03;17.10;;;8.23;;
76593;SDS011;65482;50.240;14.302;2024-01-07T05:29:30;17.55;;;9.52;;
76593;SDS011;65482;50.240;14.302;2024-01-07T05:31:55;17.80;;;9.02;;
76593;SDS011;65482;50.240;14.302;2024-01-07T05:34:21;14.40;;;7.97;;
76593;SDS011;65482;50.240;14.302;2024-01-07T05:36:46;18.27;;;9.10;;
76593;SDS011;65482;50.240;14.302;2024-01-07T05:39:12;17.95;;;8.57;;
76593;SDS011;65482;50.240;14.302;2024-01-07T05:41:38;19.73;;;8.57;;
76593;SDS011;65482;50.240;14.302;2024-01-07T05:44:06;17.40;;;8.50;;
76593;SDS011;65482;50.240;14.302;2024-01-07T05:46:32;18.95;;;9.20;;
76593;SDS011;65482;50.240;14.302;2024-01-07T05:48:58;17.70;;;8.35;;
76593;SDS011;65482;50.240;14.302;2024-01-07T05:51:24;17.83;;;8.98;;
76593;SDS011;65482;50.240;14.302;2024-01-07T05:53:50;23.00;;;9.63;;
76593;SDS011;65482;50.240;14.302;2024-01-07T05:56:15;19.55;;;9.30;;
76593;SDS011;65482;50.240;14.302;2024-01-07T05:58:41;18.88;;;8.57;;
76593;SDS011;65482;50.240;14.302;2024-01-07T06:01:07;19.02;;;8.57;;
76593;SDS011;65482;50.240;14.302;2024-01-07T06:03:33;17.15;;;8.70;;
76593;SDS011;65482;50.240;14.302;2024-01-07T06:05:59;17.90;;;9.13;;
76593;SDS011;65482;50.240;14.302;2024-01-07T06:08:28;18.15;;;8.80;;
76593;SDS011;65482;50.240;14.302;2024-01-07T06:10:54;18.08;;;8.63;;
76593;SDS011;65482;50.240;14.302;2024-01-07T06:13:19;15.93;;;8.25;;
76593;SDS011;65482;50.240;14.302;2024-01-07T06:15:45;15.65;;;8.15;;
76593;SDS011;65482;50.240;14.302;2024-01-07T06:18:10;16.17;;;7.53;;
76593;SDS011;65482;50.240;14.302;2024-01-07T06:20:36;15.95;;;8.18;;
76593;SDS011;65482;50.240;14.302;2024-01-07T06:23:02;14.18;;;7.78;;
76593;SDS011;65482;50.240;14.302;2024-01-07T06:25:27;16.65;;;8.00;;
76593;SDS011;65482;50.240;14.302;2024-01-07T06:27:53;16.75;;;8.23;;
76593;SDS011;65482;50.240;14.302;2024-01-07T06:30:18;14.20;;;8.02;;
76593;SDS011;65482;50.240;14.302;2024-01-07T06:32:44;15.45;;;7.80;;
76593;SDS011;65482;50.240;14.302;2024-01-07T06:35:11;12.68;;;6.93;;
76593;SDS011;65482;50.240;14.302;2024-01-07T06:37:36;13.70;;;7.60;;
76593;SDS011;65482;50.240;14.302;2024-01-07T06:40:02;17.88;;;8.45;;
76593;SDS011;65482;50.240;14.302;2024-01-07T06:42:28;16.17;;;8.52;;
76593;SDS011;65482;50.240;14.302;2024-01-07T06:44:54;15.52;;;7.32;;
76593;SDS011;65482;50.240;14.302;2024-01-07T06:47:19;16.10;;;7.38;;
76593;SDS011;65482;50.240;14.302;2024-01-07T06:49:45;12.80;;;7.03;;
76593;SDS011;65482;50.240;14.302;2024-01-07T06:52:11;17.25;;;7.13;;
76593;SDS011;65482;50.240;14.302;2024-01-07T06:54:36;18.10;;;7.97;;
76593;SDS011;65482;50.240;14.302;2024-01-07T06:57:02;14.77;;;7.90;;
76593;SDS011;65482;50.240;14.302;2024-01-07T06:59:27;14.63;;;7.47;;
76593;SDS011;65482;50.240;14.302;2024-01-07T07:01:53;15.70;;;7.25;;
76593;SDS011;65482;50.240;14.302;2024-01-07T07:04:21;14.90;;;7.93;;
76593;SDS011;65482;50.240;14.302;2024-01-07T07:06:47;14.13;;;7.50;;
76593;SDS011;65482;50.240;14.302;2024-01-07T07:09:13;15.50;;;7.30;;
76593;SDS011;65482;50.240;14.302;2024-01-07T07:11:40;14.88;;;7.82;;
76593;SDS011;65482;50.240;14.302;2024-01-07T07:14:06;15.07;;;7.68;;
76593;SDS011;65482;50.240;14.302;2024-01-07T07:16:32;13.43;;;6.63;;
76593;SDS011;65482;50.240;14.302;2024-01-07T07:18:57;14.23;;;8.07;;
76593;SDS011;65482;50.240;14.302;2024-01-07T07:21:23;16.92;;;7.93;;
76593;SDS011;65482;50.240;14.302;2024-01-07T07:23:48;12.18;;;6.82;;
76593;SDS011;65482;50.240;14.302;2024-01-07T07:26:14;14.75;;;7.50;;
76593;SDS011;65482;50.240;14.302;2024-01-07T07:28:39;13.93;;;6.97;;
76593;SDS011;65482;50.240;14.302;2024-01-07T07:31:05;15.18;;;7.55;;
76593;SDS011;65482;50.240;14.302;2024-01-07T07:33:30;15.73;;;8.55;;
76593;SDS011;65482;50.240;14.302;2024-01-07T07:35:56;16.10;;;7.78;;
76593;SDS011;65482;50.240;14.302;2024-01-07T07:38:22;13.98;;;7.22;;
76593;SDS011;65482;50.240;14.302;2024-01-07T07:40:48;13.45;;;7.28;;
76593;SDS011;65482;50.240;14.302;2024-01-07T07:43:18;11.88;;;6.53;;
76593;SDS011;65482;50.240;14.302;2024-01-07T07:45:46;16.45;;;9.23;;
76593;SDS011;65482;50.240;14.302;2024-01-07T07:48:11;14.82;;;8.23;;
76593;SDS011;65482;50.240;14.302;2024-01-07T07:50:37;16.63;;;9.07;;
76593;SDS011;65482;50.240;14.302;2024-01-07T07:53:02;14.98;;;7.78;;
76593;SDS011;65482;50.240;14.302;2024-01-07T07:55:30;20.23;;;9.35;;
76593;SDS011;65482;50.240;14.302;2024-01-07T07:57:55;14.32;;;7.53;;
76593;SDS011;65482;50.240;14.302;2024-01-07T08:00:21;15.48;;;8.68;;
76593;SDS011;65482;50.240;14.302;2024-01-07T08:02:48;14.32;;;7.68;;
76593;SDS011;65482;50.240;14.302;2024-01-07T08:05:16;14.95;;;7.45;;
76593;SDS011;65482;50.240;14.302;2024-01-07T08:07:43;15.07;;;7.78;;
76593;SDS011;65482;50.240;14.302;2024-01-07T08:10:09;13.73;;;7.30;;
76593;SDS011;65482;50.240;14.302;2024-01-07T08:12:35;13.73;;;8.27;;
76593;SDS011;65482;50.240;14.302;2024-01-07T08:15:01;15.45;;;7.63;;
76593;SDS011;65482;50.240;14.302;2024-01-07T08:17:27;13.45;;;7.32;;
76593;SDS011;65482;50.240;14.302;2024-01-07T08:19:53;14.40;;;7.22;;
76593;SDS011;65482;50.240;14.302;2024-01-07T08:22:19;15.77;;;7.68;;
76593;SDS011;65482;50.240;14.302;2024-01-07T08:24:45;13.98;;;7.10;;
76593;SDS011;65482;50.240;14.302;2024-01-07T08:27:10;13.02;;;6.80;;
76593;SDS011;65482;50.240;14.302;2024-01-07T08:29:36;13.95;;;6.68;;
76593;SDS011;65482;50.240;14.302;2024-01-07T08:32:01;12.65;;;7.38;;
76593;SDS011;65482;50.240;14.302;2024-01-07T08:34:27;15.90;;;8.10;;
76593;SDS011;65482;50.240;14.302;2024-01-07T08:36:53;17.05;;;10.15;;
76593;SDS011;65482;50.240;14.302;2024-01-07T08:39:19;9.75;;;5.60;;
76593;SDS011;65482;50.240;14.302;2024-01-07T08:41:45;15.23;;;7.68;;
76593;SDS011;65482;50.240;14.302;2024-01-07T08:44:11;14.48;;;7.38;;
76593;SDS011;65482;50.240;14.302;2024-01-07T08:46:36;20.55;;;8.55;;
76593;SDS011;65482;50.240;14.302;2024-01-07T08:49:02;15.90;;;7.03;;
76593;SDS011;65482;50.240;14.302;2024-01-07T08:51:28;13.13;;;6.97;;
76593;SDS011;65482;50.240;14.302;2024-01-07T08:53:54;12.98;;;6.57;;
76593;SDS011;65482;50.240;14.302;2024-01-07T08:56:22;15.20;;;8.13;;
76593;SDS011;65482;50.240;14.302;2024-01-07T08:58:48;16.85;;;8.52;;
76593;SDS011;65482;50.240;14.302;2024-01-07T09:01:13;13.18;;;6.95;;
76593;SDS011;65482;50.240;14.302;2024-01-07T09:03:39;11.93;;;6.75;;
76593;SDS011;65482;50.240;14.302;2024-01-07T09:06:06;11.68;;;6.75;;
76593;SDS011;65482;50.240;14.302;2024-01-07T09:08:33;14.57;;;8.15;;
76593;SDS011;65482;50.240;14.302;2024-01-07T09:10:59;12.15;;;7.22;;
76593;SDS011;65482;50.240;14.302;2024-01-07T09:13:25;15.85;;;7.97;;
76593;SDS011;65482;50.240;14.302;2024-01-07T09:15:51;12.60;;;6.70;;
76593;SDS011;65482;50.240;14.302;2024-01-07T09:18:17;14.00;;;6.55;;
76593;SDS011;65482;50.240;14.302;2024-01-07T09:20:42;12.60;;;6.65;;
76593;SDS011;65482;50.240;14.302;2024-01-07T09:23:08;13.85;;;7.55;;
76593;SDS011;65482;50.240;14.302;2024-01-07T09:25:33;15.75;;;7.32;;
76593;SDS011;65482;50.240;14.302;2024-01-07T09:27:59;13.60;;;7.55;;
76593;SDS011;65482;50.240;14.302;2024-01-07T09:30:24;10.65;;;6.63;;
76593;SDS011;65482;50.240;14.302;2024-01-07T09:32:50;12.02;;;7.00;;
76593;SDS011;65482;50.240;14.302;2024-01-07T09:35:16;12.32;;;6.60;;
76593;SDS011;65482;50.240;14.302;2024-01-07T09:37:41;11.65;;;6.85;;
76593;SDS011;65482;50.240;14.302;2024-01-07T09:40:07;12.05;;;6.57;;
76593;SDS011;65482;50.240;14.302;2024-01-07T09:42:33;11.27;;;6.93;;
76593;SDS011;65482;50.240;14.302;2024-01-07T09:45:00;11.82;;;6.60;;
76593;SDS011;65482;50.240;14.302;2024-01-07T09:47:31;11.77;;;6.82;;
76593;SDS011;65482;50.240;14.302;2024-01-07T09:49:56;11.75;;;6.95;;
76593;SDS011;65482;50.240;14.302;2024-01-07T09:52:22;9.90;;;5.88;;
76593;SDS011;65482;50.240;14.302;2024-01-07T09:54:51;10.73;;;6.47;;
76593;SDS011;65482;50.240;14.302;2024-01-07T09:57:18;12.85;;;6.45;;
76593;SDS011;65482;50.240;14.302;2024-01-07T09:59:44;11.63;;;6.53;;
76593;SDS011;65482;50.240;14.302;2024-01-07T10:02:12;12.48;;;6.78;;
76593;SDS011;65482;50.240;14.302;2024-01-07T10:04:37;14.60;;;6.20;;
76593;SDS011;65482;50.240;14.302;2024-01-07T10:07:03;10.35;;;6.32;;
76593;SDS011;65482;50.240;14.302;2024-01-07T10:09:29;10.80;;;6.28;;
76593;SDS011;65482;50.240;14.302;2024-01-07T10:11:57;12.13;;;7.15;;
76593;SDS011;65482;50.240;14.302;2024-01-07T10:14:23;10.13;;;6.22;;
76593;SDS011;65482;50.240;14.302;2024-01-07T10:16:51;11.07;;;6.38;;
76593;SDS011;65482;50.240;14.302;2024-01-07T10:19:21;11.02;;;6.22;;
76593;SDS011;65482;50.240;14.302;2024-01-07T10:22:00;10.70;;;6.57;;
76593;SDS011;65482;50.240;14.302;2024-01-07T10:24:36;14.93;;;8.45;;
76593;SDS011;65482;50.240;14.302;2024-01-07T10:27:05;10.05;;;6.43;;
76593;SDS011;65482;50.240;14.302;2024-01-07T10:29:32;10.88;;;5.53;;
76593;SDS011;65482;50.240;14.302;2024-01-07T10:31:58;10.05;;;5.60;;
76593;SDS011;65482;50.240;14.302;2024-01-07T10:34:27;12.40;;;6.95;;
76593;SDS011;65482;50.240;14.302;2024-01-07T10:36:56;10.73;;;6.20;;
76593;SDS011;65482;50.240;14.302;2024-01-07T10:39:23;12.10;;;6.20;;
76593;SDS011;65482;50.240;14.302;2024-01-07T10:41:50;17.63;;;9.70;;
76593;SDS011;65482;50.240;14.302;2024-01-07T10:44:19;10.13;;;6.47;;
76593;SDS011;65482;50.240;14.302;2024-01-07T10:46:46;15.85;;;9.70;;
76593;SDS011;65482;50.240;14.302;2024-01-07T10:49:29;11.45;;;6.28;;
76593;SDS011;65482;50.240;14.302;2024-01-07T10:52:03;12.27;;;6.75;;
76593;SDS011;65482;50.240;14.302;2024-01-07T10:54:30;12.00;;;7.05;;
76593;SDS011;65482;50.240;14.302;2024-01-07T10:57:00;10.32;;;6.82;;
76593;SDS011;65482;50.240;14.302;2024-01-07T10:59:49;20.20;;;16.65;;
76593;SDS011;65482;50.240;14.302;2024-01-07T11:02:16;13.00;;;6.65;;
76593;SDS011;65482;50.240;14.302;2024-01-07T11:04:45;12.98;;;6.10;;
76593;SDS011;65482;50.240;14.302;2024-01-07T11:07:44;10.48;;;6.00;;
76593;SDS011;65482;50.240;14.302;2024-01-07T11:10:25;9.95;;;6.00;;
76593;SDS011;65482;50.240;14.302;2024-01-07T11:18:22;23.90;;;11.77;;
76593;SDS011;65482;50.240;14.302;2024-01-07T11:20:52;13.55;;;7.53;;
76593;SDS011;65482;50.240;14.302;2024-01-07T11:23:28;14.80;;;8.63;;
76593;SDS011;65482;50.240;14.302;2024-01-07T11:26:05;10.70;;;5.88;;
76593;SDS011;65482;50.240;14.302;2024-01-07T11:28:50;10.35;;;5.07;;
76593;SDS011;65482;50.240;14.302;2024-01-07T11:31:20;11.50;;;6.15;;
76593;SDS011;65482;50.240;14.302;2024-01-07T11:33:50;10.60;;;5.32;;
76593;SDS011;65482;50.240;14.302;2024-01-07T11:36:16;9.80;;;5.72;;
76593;SDS011;65482;50.240;14.302;2024-01-07T11:38:49;8.65;;;5.43;;
76593;SDS011;65482;50.240;14.302;2024-01-07T11:41:15;9.20;;;5.15;;
76593;SDS011;65482;50.240;14.302;2024-01-07T11:43:53;8.50;;;5.25;;
76593;SDS011;65482;50.240;14.302;2024-01-07T11:46:20;11.30;;;5.35;;
76593;SDS011;65482;50.240;14.302;2024-01-07T11:48:50;11.23;;;5.53;;
76593;SDS011;65482;50.240;14.302;2024-01-07T11:51:18;9.15;;;5.45;;
76593;SDS011;65482;50.240;14.302;2024-01-07T11:53:47;9.98;;;5.60;;
76593;SDS011;65482;50.240;14.302;2024-01-07T11:56:14;10.57;;;6.47;;
76593;SDS011;65482;50.240;14.302;2024-01-07T11:58:40;10.13;;;6.70;;
76593;SDS011;65482;50.240;14.302;2024-01-07T12:01:07;8.02;;;5.38;;
76593;SDS011;65482;50.240;14.302;2024-01-07T12:03:33;10.60;;;5.85;;
76593;SDS011;65482;50.240;14.302;2024-01-07T12:05:59;10.15;;;5.72;;
76593;SDS011;65482;50.240;14.302;2024-01-07T12:08:25;9.20;;;5.57;;
76593;SDS011;65482;50.240;14.302;2024-01-07T12:10:50;13.60;;;6.47;;
76593;SDS011;65482;50.240;14.302;2024-01-07T12:13:16;10.82;;;5.50;;
76593;SDS011;65482;50.240;14.302;2024-01-07T12:15:43;9.75;;;5.10;;
76593;SDS011;65482;50.240;14.302;2024-01-07T12:18:09;10.95;;;6.20;;
76593;SDS011;65482;50.240;14.302;2024-01-07T12:20:35;7.60;;;5.28;;
76593;SDS011;65482;50.240;14.302;2024-01-07T12:23:07;8.02;;;4.63;;
76593;SDS011;65482;50.240;14.302;2024-01-07T12:25:36;8.27;;;4.70;;
76593;SDS011;65482;50.240;14.302;2024-01-07T12:28:02;12.60;;;5.97;;
76593;SDS011;65482;50.240;14.302;2024-01-07T12:30:31;9.57;;;5.50;;
76593;SDS011;65482;50.240;14.302;2024-01-07T12:32:58;9.48;;;5.53;;
76593;SDS011;65482;50.240;14.302;2024-01-07T12:35:26;9.63;;;5.70;;
76593;SDS011;65482;50.240;14.302;2024-01-07T12:37:53;9.07;;;5.03;;
76593;SDS011;65482;50.240;14.302;2024-01-07T12:40:19;10.15;;;5.43;;
76593;SDS011;65482;50.240;14.302;2024-01-07T12:42:45;10.38;;;5.38;;
76593;SDS011;65482;50.240;14.302;2024-01-07T12:45:11;11.13;;;6.07;;
76593;SDS011;65482;50.240;14.302;2024-01-07T12:47:41;9.68;;;5.22;;
76593;SDS011;65482;50.240;14.302;2024-01-07T12:50:07;6.97;;;4.63;;
76593;SDS011;65482;50.240;14.302;2024-01-07T12:52:36;9.18;;;5.57;;
76593;SDS011;65482;50.240;14.302;2024-01-07T12:55:06;9.07;;;4.80;;
76593;SDS011;65482;50.240;14.302;2024-01-07T12:57:33;9.02;;;5.03;;
76593;SDS011;65482;50.240;14.302;2024-01-07T12:59:59;7.90;;;4.97;;
76593;SDS011;65482;50.240;14.302;2024-01-07T13:02:25;9.95;;;5.55;;
76593;SDS011;65482;50.240;14.302;2024-01-07T13:04:51;9.40;;;5.13;;
76593;SDS011;65482;50.240;14.302;2024-01-07T13:07:16;9.18;;;4.95;;
76593;SDS011;65482;50.240;14.302;2024-01-07T13:09:42;8.55;;;4.45;;
76593;SDS011;65482;50.240;14.302;2024-01-07T13:12:10;6.90;;;4.50;;
76593;SDS011;65482;50.240;14.302;2024-01-07T13:14:36;6.47;;;4.22;;
76593;SDS011;65482;50.240;14.302;2024-01-07T13:17:02;8.57;;;4.93;;
76593;SDS011;65482;50.240;14.302;2024-01-07T13:19:29;7.40;;;4.20;;
76593;SDS011;65482;50.240;14.302;2024-01-07T13:21:55;6.82;;;4.00;;
76593;SDS011;65482;50.240;14.302;2024-01-07T13:24:23;4.65;;;3.20;;
76593;SDS011;65482;50.240;14.302;2024-01-07T13:26:49;5.32;;;3.33;;
76593;SDS011;65482;50.240;14.302;2024-01-07T13:29:14;6.25;;;3.75;;
76593;SDS011;65482;50.240;14.302;2024-01-07T13:31:40;7.85;;;3.65;;
76593;SDS011;65482;50.240;14.302;2024-01-07T13:34:05;6.95;;;3.67;;
76593;SDS011;65482;50.240;14.302;2024-01-07T13:36:31;6.70;;;3.65;;
76593;SDS011;65482;50.240;14.302;2024-01-07T13:38:56;7.18;;;3.63;;
76593;SDS011;65482;50.240;14.302;2024-01-07T13:41:22;6.32;;;3.25;;
76593;SDS011;65482;50.240;14.302;2024-01-07T13:43:50;4.13;;;2.58;;
76593;SDS011;65482;50.240;14.302;2024-01-07T13:46:15;5.38;;;2.80;;
76593;SDS011;65482;50.240;14.302;2024-01-07T13:48:41;5.15;;;3.40;;
76593;SDS011;65482;50.240;14.302;2024-01-07T13:51:09;5.47;;;2.72;;
76593;SDS011;65482;50.240;14.302;2024-01-07T13:53:34;5.45;;;3.42;;
76593;SDS011;65482;50.240;14.302;2024-01-07T13:56:00;6.00;;;3.20;;
76593;SDS011;65482;50.240;14.302;2024-01-07T13:58:25;6.60;;;3.53;;
76593;SDS011;65482;50.240;14.302;2024-01-07T14:00:51;6.10;;;3.30;;
76593;SDS011;65482;50.240;14.302;2024-01-07T14:03:17;10.48;;;3.08;;
76593;SDS011;65482;50.240;14.302;2024-01-07T14:05:43;6.07;;;3.35;;
76593;SDS011;65482;50.240;14.302;2024-01-07T14:08:09;5.85;;;3.22;;
76593;SDS011;65482;50.240;14.302;2024-01-07T14:10:34;4.57;;;2.88;;
76593;SDS011;65482;50.240;14.302;2024-01-07T14:13:01;6.20;;;3.20;;
76593;SDS011;65482;50.240;14.302;2024-01-07T14:15:28;7.10;;;3.17;;
76593;SDS011;65482;50.240;14.302;2024-01-07T14:17:54;6.43;;;3.78;;
76593;SDS011;65482;50.240;14.302;2024-01-07T14:20:19;6.20;;;3.60;;
76593;SDS011;65482;50.240;14.302;2024-01-07T14:22:46;7.03;;;3.13;;
76593;SDS011;65482;50.240;14.302;2024-01-07T14:25:12;7.72;;;3.80;;